地図

経路データ

SID SEASON NUMBER BASIN SUBBASIN NAME ISO_TIME NATURE LAT LON WMO_WIND WMO_PRES WMO_AGENCY TRACK_TYPE DIST2LAND LANDFALL IFLAG USA_AGENCY USA_ATCF_ID USA_LAT USA_LON USA_RECORD USA_STATUS USA_WIND USA_PRES USA_SSHS USA_R34_NE USA_R34_SE USA_R34_SW USA_R34_NW USA_R50_NE USA_R50_SE USA_R50_SW USA_R50_NW USA_R64_NE USA_R64_SE USA_R64_SW USA_R64_NW USA_POCI USA_ROCI USA_RMW USA_EYE TOKYO_LAT TOKYO_LON TOKYO_GRADE TOKYO_WIND TOKYO_PRES TOKYO_R50_DIR TOKYO_R50_LONG TOKYO_R50_SHORT TOKYO_R30_DIR TOKYO_R30_LONG TOKYO_R30_SHORT TOKYO_LAND CMA_LAT CMA_LON CMA_CAT CMA_WIND CMA_PRES HKO_LAT HKO_LON HKO_CAT HKO_WIND HKO_PRES NEWDELHI_LAT NEWDELHI_LON NEWDELHI_GRADE NEWDELHI_WIND NEWDELHI_PRES NEWDELHI_CI NEWDELHI_DP NEWDELHI_POCI REUNION_LAT REUNION_LON REUNION_TYPE REUNION_WIND REUNION_PRES REUNION_TNUM REUNION_CI REUNION_RMW REUNION_R34_NE REUNION_R34_SE REUNION_R34_SW REUNION_R34_NW REUNION_R50_NE REUNION_R50_SE REUNION_R50_SW REUNION_R50_NW REUNION_R64_NE REUNION_R64_SE REUNION_R64_SW REUNION_R64_NW BOM_LAT BOM_LON BOM_TYPE BOM_WIND BOM_PRES BOM_TNUM BOM_CI BOM_RMW BOM_R34_NE BOM_R34_SE BOM_R34_SW BOM_R34_NW BOM_R50_NE BOM_R50_SE BOM_R50_SW BOM_R50_NW BOM_R64_NE BOM_R64_SE BOM_R64_SW BOM_R64_NW BOM_ROCI BOM_POCI BOM_EYE BOM_POS_METHOD BOM_PRES_METHOD NADI_LAT NADI_LON NADI_CAT NADI_WIND NADI_PRES WELLINGTON_LAT WELLINGTON_LON WELLINGTON_WIND WELLINGTON_PRES DS824_LAT DS824_LON DS824_STAGE DS824_WIND DS824_PRES TD9636_LAT TD9636_LON TD9636_STAGE TD9636_WIND TD9636_PRES TD9635_LAT TD9635_LON TD9635_WIND TD9635_PRES TD9635_ROCI NEUMANN_LAT NEUMANN_LON NEUMANN_CLASS NEUMANN_WIND NEUMANN_PRES MLC_LAT MLC_LON MLC_CLASS MLC_WIND MLC_PRES USA_GUST BOM_GUST BOM_GUST_PER REUNION_GUST REUNION_GUST_PER USA_SEAHGT USA_SEARAD_NE USA_SEARAD_SE USA_SEARAD_SW USA_SEARAD_NW STORM_SPEED STORM_DIR
1872092S24053 1872 13 SI MM NOT_NAMED 1872-03-31 18:00:00 NR -23.5000 53.2000 main 327 327 __________O___ -1 -23.5000 53.2000 7 7 147
1872092S24053 1872 13 SI MM NOT_NAMED 1872-03-31 21:00:00 NR -23.8049 53.4196 main 340 340 __________P___ -1 -23.8049 53.4196 7 7 146
1872092S24053 1872 13 SI MM NOT_NAMED 1872-04-01 00:00:00 NR -24.1078 53.6417 main 358 353 __________P___ -1 -24.1078 53.6417 7 7 146
1872092S24053 1872 13 SI MM NOT_NAMED 1872-04-01 03:00:00 NR -24.4067 53.8680 main 375 375 __________P___ -1 -24.4067 53.8680 7 7 145
1872092S24053 1872 13 SI MM NOT_NAMED 1872-04-01 06:00:00 NR -24.7000 54.1000 main 399 399 __________O___ -1 -24.7000 54.1000 7 7 144
1872092S24053 1872 13 SI MM NOT_NAMED 1872-04-01 09:00:00 NR -24.9861 54.3391 main 423 420 __________P___ -1 -24.9861 54.3391 7 7 142
1872092S24053 1872 13 SI MM NOT_NAMED 1872-04-01 12:00:00 NR -25.2648 54.5854 main 447 445 __________P___ -1 -25.2648 54.5854 7 7 141
1872092S24053 1872 13 SI MM NOT_NAMED 1872-04-01 15:00:00 NR -25.5361 54.8391 main 465 465 __________P___ -1 -25.5361 54.8391 7 7 139
1872092S24053 1872 13 SI MM NOT_NAMED 1872-04-01 18:00:00 NR -25.8000 55.1000 main 494 494 __________O___ -1 -25.8000 55.1000 7 7 137
1872092S24053 1872 13 SI MM NOT_NAMED 1872-04-01 21:00:00 NR -26.0572 55.3762 main 525 525 __________P___ -1 -26.0572 55.3762 7 7 135
1872092S24053 1872 13 SI MM NOT_NAMED 1872-04-02 00:00:00 NR -26.3075 55.6578 main 547 547 __________P___ -1 -26.3075 55.6578 7 7 135
1872092S24053 1872 13 SI MM NOT_NAMED 1872-04-02 03:00:00 NR -26.5541 55.9355 main 581 581 __________P___ -1 -26.5541 55.9355 7 7 135
1872092S24053 1872 13 SI MM NOT_NAMED 1872-04-02 06:00:00 NR -26.8000 56.2000 main 606 606 __________O___ -1 -26.8000 56.2000 7 7 138
1872092S24053 1872 13 SI MM NOT_NAMED 1872-04-02 09:00:00 NR -27.0579 56.4397 main 642 642 __________P___ -1 -27.0579 56.4397 7 7 141
1872092S24053 1872 13 SI MM NOT_NAMED 1872-04-02 12:00:00 NR -27.3147 56.6654 main 668 668 __________P___ -1 -27.3147 56.6654 7 6 142
1872092S24053 1872 13 SI MM NOT_NAMED 1872-04-02 15:00:00 NR -27.5642 56.8834 main 705 705 __________P___ -1 -27.5642 56.8834 7 6 142
1872092S24053 1872 13 SI MM NOT_NAMED 1872-04-02 18:00:00 NR -27.8000 57.1000 main 730 730 __________O___ -1 -27.8000 57.1000 7 6 140
1872092S24053 1872 13 SI MM NOT_NAMED 1872-04-02 21:00:00 NR -28.0177 57.3203 main 757 757 __________P___ -1 -28.0177 57.3203 7 6 137
1872092S24053 1872 13 SI MM NOT_NAMED 1872-04-03 00:00:00 NR -28.2204 57.5444 main 783 783 __________P___ -1 -28.2204 57.5444 7 6 135
1872092S24053 1872 13 SI MM NOT_NAMED 1872-04-03 03:00:00 NR -28.4128 57.7713 main 812 812 __________P___ -1 -28.4128 57.7713 7 6 133
1872092S24053 1872 13 SI MM NOT_NAMED 1872-04-03 06:00:00 NR -28.6000 58.0000 main 839 __________O___ -1 -28.6000 58.0000 7 6 133

IBTrACS Databaseについて

本データベースは、米国NOAAが公開する1842年以降の世界の熱帯低気圧のベストトラックデータアーカイブInternational Best Track Archive for Climate Stewardship (IBTrACS)を、ウェブで閲覧しやすい形式に変換したものです。

最終更新日:2021-12-03